createdAt,value
2023-04-12T00:01:18.276Z,86.18
2023-04-12T00:03:51.349Z,86.22
2023-04-12T00:06:27.227Z,86.07
2023-04-12T00:08:54.697Z,86.57
2023-04-12T00:11:21.604Z,86.81
2023-04-12T00:13:48.439Z,86.45
2023-04-12T00:16:16.101Z,86.57
2023-04-12T00:18:45.985Z,86.74
2023-04-12T00:21:13.969Z,86.72
2023-04-12T00:23:41.015Z,86.95
2023-04-12T00:26:08.740Z,86.66
2023-04-12T00:28:35.713Z,86.66
2023-04-12T00:31:02.938Z,86.79
2023-04-12T00:33:29.746Z,86.82
2023-04-12T00:35:58.124Z,86.87
2023-04-12T00:38:25.391Z,86.71
2023-04-12T00:40:52.756Z,86.68
2023-04-12T00:43:20.500Z,87.06
2023-04-12T00:45:48.074Z,87.03
2023-04-12T00:48:16.382Z,87.02
2023-04-12T00:50:44.998Z,86.51
2023-04-12T00:53:14.068Z,86.44
2023-04-12T00:55:44.107Z,86.63
2023-04-12T00:58:11.128Z,86.31
2023-04-12T01:00:39.345Z,86.57
2023-04-12T01:03:08.844Z,86.52
2023-04-12T01:05:43.986Z,86.09
2023-04-12T01:08:36.089Z,86.02
2023-04-12T01:11:38.634Z,85.95
2023-04-12T01:14:18.050Z,85.89
2023-04-12T01:16:51.478Z,86.20
2023-04-12T01:19:36.145Z,86.20
2023-04-12T01:22:33.008Z,86.12
2023-04-12T01:25:02.864Z,86.05
2023-04-12T01:27:53.455Z,85.93
2023-04-12T01:30:21.645Z,85.90
2023-04-12T01:32:52.827Z,85.58
2023-04-12T01:35:21.922Z,85.91
2023-04-12T01:37:49.334Z,85.39
2023-04-12T01:40:18.233Z,85.79
2023-04-12T01:42:45.670Z,85.52
2023-04-12T01:45:12.987Z,85.36
2023-04-12T01:47:40.073Z,85.52
2023-04-12T01:50:18.853Z,85.42
2023-04-12T01:53:03.556Z,85.25
2023-04-12T01:55:32.839Z,85.54
2023-04-12T01:58:03.516Z,85.42
2023-04-12T02:00:32.355Z,85.29
2023-04-12T02:03:00.477Z,85.13
2023-04-12T02:05:28.927Z,84.75
2023-04-12T02:07:57.803Z,84.66
2023-04-12T02:10:33.343Z,84.90
2023-04-12T02:13:04.494Z,84.73
2023-04-12T02:15:33.910Z,84.88
2023-04-12T02:18:01.798Z,84.87
2023-04-12T02:20:28.826Z,84.80
2023-04-12T02:22:56.151Z,84.75
2023-04-12T02:25:23.817Z,85.08
2023-04-12T02:27:51.525Z,84.97
2023-04-12T02:30:20.350Z,85.22
2023-04-12T02:32:47.526Z,85.26
2023-04-12T02:35:19.051Z,85.04
2023-04-12T02:37:47.524Z,85.08
2023-04-12T02:40:17.781Z,85.07
2023-04-12T02:42:45.319Z,85.35
2023-04-12T02:45:12.434Z,85.08
2023-04-12T02:47:41.075Z,85.02
2023-04-12T02:50:08.897Z,85.25
2023-04-12T02:52:35.902Z,85.24
2023-04-12T02:55:03.469Z,85.55
2023-04-12T02:57:30.402Z,85.34
2023-04-12T02:59:57.348Z,85.32
2023-04-12T03:02:25.766Z,85.53
2023-04-12T03:05:10.934Z,85.59
2023-04-12T03:07:38.812Z,85.53
2023-04-12T03:10:09.547Z,85.79
2023-04-12T03:12:36.745Z,85.52
2023-04-12T03:15:04.195Z,85.50
2023-04-12T03:17:31.398Z,85.54
2023-04-12T03:20:10.704Z,85.80
2023-04-12T03:22:38.882Z,85.59
2023-04-12T03:25:06.227Z,85.81
2023-04-12T03:27:33.357Z,85.57
2023-04-12T03:30:00.644Z,85.51
2023-04-12T03:32:30.147Z,85.48
2023-04-12T03:34:58.123Z,85.77
2023-04-12T03:37:25.076Z,85.50
2023-04-12T03:39:52.370Z,85.58
2023-04-12T03:42:32.461Z,85.49
2023-04-12T03:45:00.556Z,85.88
2023-04-12T03:47:27.653Z,85.54
2023-04-12T03:50:10.324Z,85.72
2023-04-12T03:52:38.740Z,85.76
2023-04-12T03:55:08.055Z,85.80
2023-04-12T03:57:35.458Z,85.23
2023-04-12T04:00:02.921Z,85.75
2023-04-12T04:02:33.202Z,85.59
2023-04-12T04:05:00.424Z,85.45
2023-04-12T04:07:28.273Z,85.62
2023-04-12T04:09:56.210Z,85.49
2023-04-12T04:12:23.067Z,85.46
2023-04-12T04:14:50.051Z,85.72
2023-04-12T04:17:16.891Z,85.27
2023-04-12T04:19:44.399Z,85.21
2023-04-12T04:22:13.942Z,85.60
2023-04-12T04:24:40.796Z,85.31
2023-04-12T04:27:07.712Z,85.22
2023-04-12T04:29:35.085Z,85.46
2023-04-12T04:32:02.442Z,85.05
2023-04-12T04:34:29.534Z,85.28
2023-04-12T04:36:57.822Z,85.03
2023-04-12T04:39:27.025Z,84.93
2023-04-12T04:41:55.274Z,85.06
2023-04-12T04:44:22.492Z,84.75
2023-04-12T04:46:52.035Z,84.71
2023-04-12T04:49:18.863Z,84.59
2023-04-12T04:51:45.914Z,84.87
2023-04-12T04:54:14.240Z,84.62
2023-04-12T04:56:41.497Z,84.47
2023-04-12T04:59:08.414Z,84.67
2023-04-12T05:01:38.494Z,84.49
2023-04-12T05:04:06.995Z,84.44
2023-04-12T05:06:37.133Z,84.51
2023-04-12T05:09:08.061Z,84.29
2023-04-12T05:11:37.368Z,84.22
2023-04-12T05:14:07.326Z,84.24
2023-04-12T05:16:34.192Z,83.82
2023-04-12T05:19:01.269Z,83.81
2023-04-12T05:21:29.085Z,83.66
2023-04-12T05:23:56.608Z,83.60
2023-04-12T05:26:26.459Z,83.67
2023-04-12T05:28:53.873Z,83.49
2023-04-12T05:31:21.185Z,83.50
2023-04-12T05:33:49.664Z,83.46
2023-04-12T05:36:18.265Z,83.37
2023-04-12T05:38:45.683Z,83.09
2023-04-12T05:41:12.955Z,83.45
2023-04-12T05:43:40.007Z,82.92
2023-04-12T05:46:09.890Z,83.07
2023-04-12T05:48:37.233Z,82.74
2023-04-12T05:51:05.518Z,82.86
2023-04-12T05:53:33.304Z,82.91
2023-04-12T05:56:00.220Z,82.69
2023-04-12T05:58:27.240Z,82.64
2023-04-12T06:00:55.662Z,82.64
2023-04-12T06:03:26.059Z,82.38
2023-04-12T06:05:54.108Z,82.11
2023-04-12T06:08:22.192Z,82.15
2023-04-12T06:10:49.236Z,82.39
2023-04-12T06:13:17.221Z,81.81
2023-04-12T06:15:44.166Z,81.86
2023-04-12T06:18:13.182Z,81.89
2023-04-12T06:20:41.498Z,81.58
2023-04-12T06:23:08.398Z,81.48
2023-04-12T06:25:35.710Z,81.60
2023-04-12T06:28:02.716Z,81.32
2023-04-12T06:30:29.610Z,81.25
2023-04-12T06:32:56.916Z,81.56
2023-04-12T06:35:24.369Z,81.47
2023-04-12T06:37:51.303Z,81.37
2023-04-12T06:40:18.398Z,81.59
2023-04-12T06:42:45.398Z,81.40
2023-04-12T06:45:12.670Z,81.63
2023-04-12T06:47:39.592Z,81.76
2023-04-12T06:50:07.260Z,82.22
2023-04-12T06:52:34.100Z,82.21
2023-04-12T06:55:01.326Z,82.33
2023-04-12T06:57:28.199Z,82.55
2023-04-12T06:59:55.553Z,82.83
2023-04-12T07:02:23.325Z,82.80
2023-04-12T07:04:56.362Z,83.29
2023-04-12T07:07:23.502Z,83.54
2023-04-12T07:09:55.493Z,83.72
2023-04-12T07:12:23.052Z,83.77
2023-04-12T07:14:52.377Z,84.14
2023-04-12T07:17:22.072Z,84.17
2023-04-12T07:19:50.415Z,84.56
2023-04-12T07:22:17.263Z,84.34
2023-04-12T07:24:45.157Z,84.61
2023-04-12T07:27:12.160Z,85.06
2023-04-12T07:29:39.293Z,85.21
2023-04-12T07:32:06.741Z,85.08
2023-04-12T07:34:33.824Z,85.00
2023-04-12T07:37:02.126Z,85.57
2023-04-12T07:39:30.582Z,85.60
2023-04-12T07:41:57.832Z,85.68
2023-04-12T07:44:24.701Z,85.25
2023-04-12T07:46:51.805Z,85.72
2023-04-12T07:49:19.025Z,85.77
2023-04-12T07:51:46.993Z,85.89
2023-04-12T07:54:14.961Z,85.90
2023-04-12T07:56:41.933Z,86.25
2023-04-12T07:59:09.888Z,86.40
2023-04-12T08:01:40.575Z,86.84
2023-04-12T08:04:07.930Z,86.68
2023-04-12T08:06:35.036Z,87.04
2023-04-12T08:09:02.280Z,86.88
2023-04-12T08:11:29.340Z,87.18
2023-04-12T08:13:56.513Z,87.50
2023-04-12T08:16:23.829Z,87.38
2023-04-12T08:18:51.559Z,87.73
2023-04-12T08:21:18.494Z,87.73
2023-04-12T08:23:46.562Z,87.64
2023-04-12T08:26:13.496Z,87.90
2023-04-12T08:28:40.586Z,88.09
2023-04-12T08:31:08.706Z,87.91
2023-04-12T08:33:35.998Z,88.13
2023-04-12T08:36:03.002Z,88.15
2023-04-12T08:38:44.050Z,88.63
2023-04-12T08:41:12.760Z,88.62
2023-04-12T08:43:45.627Z,88.72
2023-04-12T08:46:16.102Z,88.66
2023-04-12T08:48:50.310Z,88.88
2023-04-12T08:51:20.230Z,88.96
2023-04-12T08:53:48.140Z,88.56
2023-04-12T08:56:17.896Z,88.75
2023-04-12T08:58:51.475Z,88.76
2023-04-12T09:01:20.535Z,88.74
2023-04-12T09:03:47.729Z,87.63
2023-04-12T09:06:14.911Z,88.21
2023-04-12T09:08:57.071Z,87.57
2023-04-12T09:11:30.016Z,87.75
2023-04-12T09:13:58.847Z,87.53
2023-04-12T09:16:41.785Z,87.46
2023-04-12T09:19:09.854Z,87.44
2023-04-12T09:21:37.464Z,87.14
2023-04-12T09:24:06.332Z,87.14
2023-04-12T09:26:34.056Z,87.30
2023-04-12T09:29:01.184Z,87.04
2023-04-12T09:31:28.129Z,86.00
2023-04-12T09:34:08.082Z,85.83
2023-04-12T09:36:40.398Z,85.41
2023-04-12T09:39:08.453Z,85.20
2023-04-12T09:41:38.965Z,85.38
2023-04-12T09:44:08.507Z,84.41
2023-04-12T09:46:36.205Z,84.32
2023-04-12T09:49:05.723Z,84.21
2023-04-12T09:51:34.341Z,83.95
2023-04-12T09:54:04.193Z,83.62
2023-04-12T09:56:34.200Z,84.11
2023-04-12T09:59:07.227Z,83.89
2023-04-12T10:01:41.473Z,83.32
2023-04-12T10:04:10.184Z,82.99
2023-04-12T10:06:37.818Z,81.91
2023-04-12T10:09:05.656Z,82.16
2023-04-12T10:11:34.488Z,81.82
2023-04-12T10:14:07.847Z,81.59
2023-04-12T10:16:35.280Z,81.79
2023-04-12T10:19:04.345Z,81.01
2023-04-12T10:21:31.755Z,80.16
2023-04-12T10:24:01.198Z,80.22
2023-04-12T10:26:28.390Z,80.24
2023-04-12T10:29:26.497Z,80.64
2023-04-12T10:31:55.644Z,79.59
2023-04-12T10:34:32.135Z,79.07
2023-04-12T10:37:01.060Z,78.97
2023-04-12T10:39:47.399Z,79.10
2023-04-12T10:42:30.863Z,77.20
2023-04-12T10:45:23.635Z,75.88
2023-04-12T10:47:54.339Z,75.21
2023-04-12T10:50:25.128Z,75.40
2023-04-12T10:53:13.513Z,76.18
2023-04-12T10:55:41.446Z,76.32
2023-04-12T10:58:09.469Z,76.29
2023-04-12T11:00:58.728Z,76.54
2023-04-12T11:03:28.364Z,76.56
2023-04-12T11:06:19.964Z,76.41
2023-04-12T11:08:56.597Z,76.02
2023-04-12T11:11:27.252Z,75.65
2023-04-12T11:13:57.194Z,75.25
2023-04-12T11:16:24.135Z,75.17
2023-04-12T11:18:51.495Z,75.23
2023-04-12T11:21:19.169Z,74.89
2023-04-12T11:23:47.704Z,74.72
2023-04-12T11:26:22.233Z,74.80
2023-04-12T11:28:53.185Z,74.49
2023-04-12T11:31:21.999Z,73.89
2023-04-12T11:33:49.016Z,73.32
2023-04-12T11:36:16.423Z,73.20
2023-04-12T11:38:46.384Z,73.23
2023-04-12T11:41:15.334Z,73.19
2023-04-12T11:43:42.800Z,73.12
2023-04-12T11:46:09.910Z,72.99
2023-04-12T11:48:41.282Z,72.93
2023-04-12T11:51:32.373Z,72.81
2023-04-12T11:53:59.896Z,72.71
2023-04-12T11:56:30.073Z,72.50
2023-04-12T11:58:56.895Z,72.42
2023-04-12T12:01:25.735Z,72.54
2023-04-12T12:03:53.266Z,72.46
2023-04-12T12:06:22.625Z,72.53
2023-04-12T12:08:55.905Z,72.04
2023-04-12T12:11:23.925Z,72.07
2023-04-12T12:13:55.424Z,72.00
2023-04-12T12:16:28.131Z,72.01
2023-04-12T12:18:57.061Z,71.93
2023-04-12T12:21:24.628Z,71.40
2023-04-12T12:23:51.624Z,71.59
2023-04-12T12:26:27.007Z,71.57
2023-04-12T12:29:00.558Z,71.54
2023-04-12T12:31:33.798Z,71.61
2023-04-12T12:34:04.958Z,71.55
2023-04-12T12:36:36.512Z,71.72
2023-04-12T12:39:10.841Z,71.77
2023-04-12T12:41:39.305Z,71.73
2023-04-12T12:44:07.473Z,71.93
2023-04-12T12:46:51.788Z,72.08
2023-04-12T12:49:22.444Z,71.57
2023-04-12T12:51:50.827Z,71.32
2023-04-12T12:54:32.362Z,71.55
2023-04-12T12:57:11.375Z,71.44
2023-04-12T12:59:38.440Z,71.51
2023-04-12T13:02:07.676Z,71.36
2023-04-12T13:04:35.140Z,71.16
2023-04-12T13:07:02.046Z,71.20
2023-04-12T13:09:28.956Z,71.46
2023-04-12T13:11:57.492Z,71.76
2023-04-12T13:14:25.226Z,72.07
2023-04-12T13:16:52.238Z,72.39
2023-04-12T13:19:19.402Z,73.03
2023-04-12T13:21:47.935Z,73.08
2023-04-12T13:24:14.801Z,73.68
2023-04-12T13:26:41.823Z,74.08
2023-04-12T13:29:08.642Z,74.45
2023-04-12T13:31:36.688Z,74.75
2023-04-12T13:34:05.120Z,75.13
2023-04-12T13:36:31.965Z,75.44
2023-04-12T13:38:59.043Z,75.69
2023-04-12T13:41:26.744Z,75.88
2023-04-12T13:43:53.716Z,76.13
2023-04-12T13:46:21.191Z,76.43
2023-04-12T13:48:48.159Z,76.54
2023-04-12T13:51:15.135Z,76.76
2023-04-12T13:53:44.130Z,77.13
2023-04-12T13:56:13.027Z,77.24
2023-04-12T13:58:40.584Z,77.32
2023-04-12T14:01:09.143Z,77.43
2023-04-12T14:03:46.114Z,77.34
2023-04-12T14:06:13.230Z,77.73
2023-04-12T14:08:40.211Z,78.25
2023-04-12T14:11:07.963Z,78.26
2023-04-12T14:13:35.411Z,78.67
2023-04-12T14:16:02.374Z,78.82
2023-04-12T14:18:29.574Z,79.17
2023-04-12T14:20:57.874Z,79.33
2023-04-12T14:23:28.662Z,79.50
2023-04-12T14:25:56.724Z,79.60
2023-04-12T14:28:30.729Z,79.90
2023-04-12T14:30:58.176Z,80.04
2023-04-12T14:33:26.087Z,80.16
2023-04-12T14:35:54.269Z,80.64
2023-04-12T14:38:25.201Z,80.74
2023-04-12T14:40:52.101Z,81.04
2023-04-12T14:43:18.912Z,81.24
2023-04-12T14:45:45.969Z,81.34
2023-04-12T14:48:13.012Z,81.44
2023-04-12T14:50:39.984Z,81.57
2023-04-12T14:53:10.839Z,81.94
2023-04-12T14:55:38.658Z,82.46
2023-04-12T14:58:06.884Z,82.49
2023-04-12T15:00:34.099Z,83.00
2023-04-12T15:03:01.553Z,83.31
2023-04-12T15:05:28.753Z,83.80
2023-04-12T15:07:55.671Z,84.01
2023-04-12T15:10:22.637Z,84.05
2023-04-12T15:12:51.535Z,84.29
2023-04-12T15:15:18.358Z,84.59
2023-04-12T15:17:45.729Z,84.83
2023-04-12T15:20:17.093Z,84.83
2023-04-12T15:22:44.191Z,85.19
2023-04-12T15:25:11.965Z,85.51
2023-04-12T15:27:38.939Z,85.46
2023-04-12T15:30:10.256Z,85.22
2023-04-12T15:32:42.508Z,85.46
2023-04-12T15:35:25.365Z,85.50
2023-04-12T15:37:55.352Z,85.89
2023-04-12T15:40:23.176Z,85.95
2023-04-12T15:42:50.073Z,86.13
2023-04-12T15:45:17.470Z,86.46
2023-04-12T15:47:46.801Z,86.32
2023-04-12T15:50:15.368Z,86.72
2023-04-12T15:52:44.430Z,86.88
2023-04-12T15:55:12.956Z,86.99
2023-04-12T15:57:41.101Z,87.33
2023-04-12T16:00:21.283Z,87.37
2023-04-12T16:02:53.914Z,87.47
2023-04-12T16:05:21.302Z,87.96
2023-04-12T16:07:51.171Z,87.86
2023-04-12T16:10:21.183Z,87.77
2023-04-12T16:12:52.893Z,87.83
2023-04-12T16:15:20.947Z,88.14
2023-04-12T16:17:53.437Z,88.19
2023-04-12T16:20:23.481Z,88.33
2023-04-12T16:22:55.026Z,88.69
2023-04-12T16:25:30.759Z,88.69
2023-04-12T16:28:02.471Z,88.78
2023-04-12T16:30:31.542Z,88.82
2023-04-12T16:33:00.180Z,88.71
2023-04-12T16:35:27.308Z,88.83
2023-04-12T16:37:54.936Z,88.72
2023-04-12T16:40:22.419Z,88.82
2023-04-12T16:42:49.404Z,88.83
2023-04-12T16:45:16.558Z,89.09
2023-04-12T16:47:47.479Z,88.90
2023-04-12T16:50:17.661Z,89.00
2023-04-12T16:52:44.928Z,89.19
2023-04-12T16:55:12.475Z,89.25
2023-04-12T16:57:42.009Z,89.34
2023-04-12T17:00:29.210Z,89.36
2023-04-12T17:02:56.308Z,89.22
2023-04-12T17:05:23.757Z,89.19
2023-04-12T17:07:54.514Z,89.40
2023-04-12T17:10:23.257Z,89.30
2023-04-12T17:12:55.854Z,89.38
2023-04-12T17:15:23.210Z,89.26
2023-04-12T17:17:52.805Z,89.24
2023-04-12T17:20:22.355Z,89.13
2023-04-12T17:22:49.983Z,89.40
2023-04-12T17:25:20.701Z,89.35
2023-04-12T17:27:49.637Z,89.13
2023-04-12T17:30:17.923Z,89.07
2023-04-12T17:32:50.965Z,89.01
2023-04-12T17:35:18.634Z,88.93
2023-04-12T17:37:47.142Z,88.95
2023-04-12T17:40:15.481Z,88.96
2023-04-12T17:42:43.834Z,88.84
2023-04-12T17:45:13.999Z,88.52
2023-04-12T17:47:43.949Z,88.57
2023-04-12T17:50:11.869Z,88.58
2023-04-12T17:52:39.094Z,88.54
2023-04-12T17:55:09.436Z,88.38
2023-04-12T17:57:37.637Z,88.36
2023-04-12T18:00:14.572Z,88.24
2023-04-12T18:02:43.842Z,88.17
2023-04-12T18:05:11.439Z,87.60
2023-04-12T18:07:40.358Z,88.02
2023-04-12T18:10:15.767Z,87.70
2023-04-12T18:12:45.394Z,87.93
2023-04-12T18:15:13.025Z,87.79
2023-04-12T18:17:41.298Z,87.67
2023-04-12T18:20:10.863Z,87.75
2023-04-12T18:22:39.906Z,87.63
2023-04-12T18:25:11.908Z,87.75
2023-04-12T18:27:38.807Z,87.66
2023-04-12T18:30:07.952Z,87.57
2023-04-12T18:32:36.221Z,87.65
2023-04-12T18:35:05.225Z,87.66
2023-04-12T18:37:33.512Z,87.79
2023-04-12T18:40:01.091Z,87.89
2023-04-12T18:42:28.783Z,88.09
2023-04-12T18:44:58.403Z,88.22
2023-04-12T18:47:27.391Z,88.27
2023-04-12T18:49:55.786Z,88.53
2023-04-12T18:52:22.683Z,88.77
2023-04-12T18:54:59.988Z,88.91
2023-04-12T18:57:30.107Z,89.09
2023-04-12T18:59:57.823Z,89.35
2023-04-12T19:02:25.135Z,89.27
2023-04-12T19:04:52.334Z,89.23
2023-04-12T19:07:19.540Z,89.27
2023-04-12T19:09:48.275Z,89.14
2023-04-12T19:12:15.984Z,89.02
2023-04-12T19:14:43.694Z,88.93
2023-04-12T19:17:10.697Z,88.39
2023-04-12T19:19:38.116Z,88.37
2023-04-12T19:22:04.946Z,88.41
2023-04-12T19:24:32.142Z,88.36
2023-04-12T19:27:00.746Z,88.21
2023-04-12T19:29:29.586Z,88.21
2023-04-12T19:31:58.050Z,88.06
2023-04-12T19:34:29.797Z,87.93
2023-04-12T19:36:58.924Z,87.50
2023-04-12T19:39:27.376Z,87.52
2023-04-12T19:41:54.498Z,87.10
2023-04-12T19:44:23.406Z,86.94
2023-04-12T19:46:51.832Z,86.65
2023-04-12T19:49:22.213Z,86.54
2023-04-12T19:51:49.214Z,86.58
2023-04-12T19:54:16.107Z,86.66
2023-04-12T19:56:44.515Z,86.34
2023-04-12T19:59:13.581Z,86.63
2023-04-12T20:01:48.423Z,86.35
2023-04-12T20:04:23.053Z,86.34
2023-04-12T20:06:52.052Z,86.45
2023-04-12T20:09:19.186Z,86.33
2023-04-12T20:11:46.419Z,86.05
2023-04-12T20:14:13.516Z,86.01
2023-04-12T20:16:43.953Z,86.38
2023-04-12T20:19:12.052Z,86.30
2023-04-12T20:21:40.470Z,86.10
2023-04-12T20:24:10.166Z,86.27
2023-04-12T20:26:37.519Z,86.17
2023-04-12T20:29:05.015Z,86.55
2023-04-12T20:31:33.568Z,86.31
2023-04-12T20:34:00.533Z,86.68
2023-04-12T20:36:29.826Z,86.37
2023-04-12T20:38:57.030Z,86.47
2023-04-12T20:41:24.511Z,86.60
2023-04-12T20:43:54.409Z,86.88
2023-04-12T20:46:25.940Z,87.09
2023-04-12T20:48:57.663Z,86.87
2023-04-12T20:51:25.115Z,86.58
2023-04-12T20:53:52.477Z,86.71
2023-04-12T20:56:20.626Z,86.59
2023-04-12T20:58:49.856Z,86.58
2023-04-12T21:01:19.065Z,86.38
2023-04-12T21:03:47.099Z,86.38
2023-04-12T21:06:15.926Z,86.02
2023-04-12T21:08:47.670Z,86.24
2023-04-12T21:11:15.473Z,86.37
2023-04-12T21:13:42.489Z,86.12
2023-04-12T21:16:09.961Z,86.05
2023-04-12T21:18:36.957Z,86.11
2023-04-12T21:21:06.198Z,85.89
2023-04-12T21:23:33.234Z,85.95
2023-04-12T21:26:00.144Z,85.66
2023-04-12T21:28:29.740Z,85.89
2023-04-12T21:30:58.630Z,85.85
2023-04-12T21:33:25.773Z,85.71
2023-04-12T21:35:58.862Z,85.90
2023-04-12T21:38:26.253Z,85.76
2023-04-12T21:40:54.478Z,85.69
2023-04-12T21:43:21.273Z,85.66
2023-04-12T21:45:48.166Z,85.69
2023-04-12T21:48:15.065Z,85.69
2023-04-12T21:50:43.608Z,85.93
2023-04-12T21:53:10.631Z,85.81
2023-04-12T21:55:38.676Z,85.81
2023-04-12T21:58:07.439Z,85.93
2023-04-12T22:00:37.208Z,85.96
2023-04-12T22:03:04.684Z,85.90
2023-04-12T22:05:32.169Z,85.89
2023-04-12T22:08:00.746Z,86.19
2023-04-12T22:10:29.526Z,86.02
2023-04-12T22:12:56.379Z,86.22
2023-04-12T22:15:23.252Z,86.27
2023-04-12T22:17:54.125Z,86.28
2023-04-12T22:20:21.088Z,86.26
2023-04-12T22:22:48.701Z,86.44
2023-04-12T22:25:16.897Z,86.33
2023-04-12T22:27:48.026Z,86.55
2023-04-12T22:30:16.012Z,86.52
2023-04-12T22:32:43.271Z,86.80
2023-04-12T22:35:10.467Z,86.81
2023-04-12T22:37:47.048Z,86.80
2023-04-12T22:40:14.682Z,86.70
2023-04-12T22:42:49.152Z,86.78
2023-04-12T22:45:19.890Z,86.90
2023-04-12T22:47:47.824Z,87.13
2023-04-12T22:50:15.286Z,86.87
2023-04-12T22:52:42.869Z,86.74
2023-04-12T22:55:21.196Z,87.09
2023-04-12T22:57:48.035Z,87.10
2023-04-12T23:00:17.126Z,86.96
2023-04-12T23:02:46.586Z,87.25
2023-04-12T23:05:14.385Z,87.08
2023-04-12T23:07:41.764Z,87.16
2023-04-12T23:10:09.465Z,87.42
2023-04-12T23:12:37.538Z,87.40
2023-04-12T23:15:06.575Z,87.12
2023-04-12T23:17:34.102Z,87.32
2023-04-12T23:20:02.292Z,87.62
2023-04-12T23:22:55.802Z,87.37
2023-04-12T23:25:25.670Z,87.64
2023-04-12T23:27:52.614Z,87.38
2023-04-12T23:30:24.973Z,87.50
2023-04-12T23:32:53.589Z,87.82
2023-04-12T23:35:20.560Z,87.60
2023-04-12T23:37:48.767Z,87.56
2023-04-12T23:40:15.882Z,87.54
2023-04-12T23:42:43.726Z,87.61
2023-04-12T23:45:12.177Z,87.81
2023-04-12T23:47:39.136Z,87.86
2023-04-12T23:50:07.473Z,87.64
2023-04-12T23:52:34.558Z,88.00
2023-04-12T23:55:02.857Z,87.84
2023-04-12T23:57:29.916Z,87.90
2023-04-12T23:59:56.938Z,88.19
